sensor_id;sensor_type;location;lat;lon;timestamp;temperature;humidity
23335;DHT22;11839;48.598;8.870;2024-01-06T00:00:55;7.70;99.90
23335;DHT22;11839;48.598;8.870;2024-01-06T00:03:23;7.70;99.90
23335;DHT22;11839;48.598;8.870;2024-01-06T00:05:50;7.40;99.90
23335;DHT22;11839;48.598;8.870;2024-01-06T00:08:17;7.60;99.90
23335;DHT22;11839;48.598;8.870;2024-01-06T00:10:44;8.10;99.90
23335;DHT22;11839;48.598;8.870;2024-01-06T00:13:11;8.30;99.90
23335;DHT22;11839;48.598;8.870;2024-01-06T00:15:37;8.20;99.90
23335;DHT22;11839;48.598;8.870;2024-01-06T00:18:04;8.20;99.90
23335;DHT22;11839;48.598;8.870;2024-01-06T00:20:32;8.10;99.90
23335;DHT22;11839;48.598;8.870;2024-01-06T00:22:59;8.30;99.90
23335;DHT22;11839;48.598;8.870;2024-01-06T00:25:26;8.40;99.90
23335;DHT22;11839;48.598;8.870;2024-01-06T00:27:53;8.40;99.90
23335;DHT22;11839;48.598;8.870;2024-01-06T00:30:20;8.50;99.90
23335;DHT22;11839;48.598;8.870;2024-01-06T00:32:46;8.50;99.90
23335;DHT22;11839;48.598;8.870;2024-01-06T00:35:13;8.40;99.90
23335;DHT22;11839;48.598;8.870;2024-01-06T00:37:42;8.60;99.90
23335;DHT22;11839;48.598;8.870;2024-01-06T00:40:09;8.70;99.90
23335;DHT22;11839;48.598;8.870;2024-01-06T00:42:36;8.80;99.90
23335;DHT22;11839;48.598;8.870;2024-01-06T00:45:03;8.70;99.90
23335;DHT22;11839;48.598;8.870;2024-01-06T00:47:31;8.60;99.90
23335;DHT22;11839;48.598;8.870;2024-01-06T00:49:57;8.50;99.90
23335;DHT22;11839;48.598;8.870;2024-01-06T00:52:24;8.40;99.90
23335;DHT22;11839;48.598;8.870;2024-01-06T00:54:52;8.60;99.90
23335;DHT22;11839;48.598;8.870;2024-01-06T00:57:19;8.40;99.90
23335;DHT22;11839;48.598;8.870;2024-01-06T00:59:49;8.40;99.90
23335;DHT22;11839;48.598;8.870;2024-01-06T01:02:16;8.40;99.90
23335;DHT22;11839;48.598;8.870;2024-01-06T01:04:43;8.30;99.90
23335;DHT22;11839;48.598;8.870;2024-01-06T01:07:10;8.30;99.90
23335;DHT22;11839;48.598;8.870;2024-01-06T01:09:36;8.20;99.90
23335;DHT22;11839;48.598;8.870;2024-01-06T01:12:05;8.20;99.90
23335;DHT22;11839;48.598;8.870;2024-01-06T01:14:32;7.80;99.90
23335;DHT22;11839;48.598;8.870;2024-01-06T01:16:59;7.20;99.90
23335;DHT22;11839;48.598;8.870;2024-01-06T01:19:25;7.40;99.90
23335;DHT22;11839;48.598;8.870;2024-01-06T01:21:52;7.70;99.90
23335;DHT22;11839;48.598;8.870;2024-01-06T01:24:21;7.60;99.90
23335;DHT22;11839;48.598;8.870;2024-01-06T01:26:47;7.70;99.90
23335;DHT22;11839;48.598;8.870;2024-01-06T01:29:16;7.80;99.90
23335;DHT22;11839;48.598;8.870;2024-01-06T01:31:45;7.90;99.90
23335;DHT22;11839;48.598;8.870;2024-01-06T01:34:12;7.80;99.90
23335;DHT22;11839;48.598;8.870;2024-01-06T01:36:39;7.80;99.90
23335;DHT22;11839;48.598;8.870;2024-01-06T01:39:06;8.10;99.90
23335;DHT22;11839;48.598;8.870;2024-01-06T01:41:33;8.00;99.90
23335;DHT22;11839;48.598;8.870;2024-01-06T01:43:59;8.00;99.90
23335;DHT22;11839;48.598;8.870;2024-01-06T01:46:29;8.00;99.90
23335;DHT22;11839;48.598;8.870;2024-01-06T01:48:57;8.10;99.90
23335;DHT22;11839;48.598;8.870;2024-01-06T01:51:26;8.20;99.90
23335;DHT22;11839;48.598;8.870;2024-01-06T01:53:53;7.90;99.90
23335;DHT22;11839;48.598;8.870;2024-01-06T01:56:21;8.10;99.90
23335;DHT22;11839;48.598;8.870;2024-01-06T01:58:48;7.90;99.90
23335;DHT22;11839;48.598;8.870;2024-01-06T02:01:15;8.00;99.90
23335;DHT22;11839;48.598;8.870;2024-01-06T02:03:43;8.40;99.90
23335;DHT22;11839;48.598;8.870;2024-01-06T02:06:10;8.40;99.90
23335;DHT22;11839;48.598;8.870;2024-01-06T02:08:38;8.40;99.90
23335;DHT22;11839;48.598;8.870;2024-01-06T02:11:05;8.20;99.90
23335;DHT22;11839;48.598;8.870;2024-01-06T02:13:36;8.30;99.90
23335;DHT22;11839;48.598;8.870;2024-01-06T02:16:04;8.40;99.90
23335;DHT22;11839;48.598;8.870;2024-01-06T02:18:31;8.40;99.90
23335;DHT22;11839;48.598;8.870;2024-01-06T02:21:00;8.40;99.90
23335;DHT22;11839;48.598;8.870;2024-01-06T02:23:29;8.40;99.90
23335;DHT22;11839;48.598;8.870;2024-01-06T02:25:56;8.10;99.90
23335;DHT22;11839;48.598;8.870;2024-01-06T02:28:23;8.40;99.90
23335;DHT22;11839;48.598;8.870;2024-01-06T02:30:50;8.30;99.90
23335;DHT22;11839;48.598;8.870;2024-01-06T02:33:17;8.40;99.90
23335;DHT22;11839;48.598;8.870;2024-01-06T02:35:44;8.50;99.90
23335;DHT22;11839;48.598;8.870;2024-01-06T02:38:10;8.50;99.90
23335;DHT22;11839;48.598;8.870;2024-01-06T02:40:38;8.50;99.90
23335;DHT22;11839;48.598;8.870;2024-01-06T02:43:05;8.40;99.90
23335;DHT22;11839;48.598;8.870;2024-01-06T02:45:32;8.30;99.90
23335;DHT22;11839;48.598;8.870;2024-01-06T02:47:59;8.00;99.90
23335;DHT22;11839;48.598;8.870;2024-01-06T02:50:25;7.70;99.90
23335;DHT22;11839;48.598;8.870;2024-01-06T02:52:52;7.90;99.90
23335;DHT22;11839;48.598;8.870;2024-01-06T02:55:19;8.00;99.90
23335;DHT22;11839;48.598;8.870;2024-01-06T02:57:47;8.10;99.90
23335;DHT22;11839;48.598;8.870;2024-01-06T03:00:15;8.50;99.90
23335;DHT22;11839;48.598;8.870;2024-01-06T03:02:42;7.80;99.90
23335;DHT22;11839;48.598;8.870;2024-01-06T03:05:09;8.00;99.90
23335;DHT22;11839;48.598;8.870;2024-01-06T03:07:36;7.80;99.90
23335;DHT22;11839;48.598;8.870;2024-01-06T03:10:03;8.00;99.90
23335;DHT22;11839;48.598;8.870;2024-01-06T03:12:30;8.00;99.90
23335;DHT22;11839;48.598;8.870;2024-01-06T03:14:58;7.70;99.90
23335;DHT22;11839;48.598;8.870;2024-01-06T03:17:25;7.40;99.90
23335;DHT22;11839;48.598;8.870;2024-01-06T03:19:52;7.30;99.90
23335;DHT22;11839;48.598;8.870;2024-01-06T03:22:18;7.40;99.90
23335;DHT22;11839;48.598;8.870;2024-01-06T03:24:45;8.90;99.90
23335;DHT22;11839;48.598;8.870;2024-01-06T03:27:12;7.70;99.90
23335;DHT22;11839;48.598;8.870;2024-01-06T03:29:39;7.80;99.90
23335;DHT22;11839;48.598;8.870;2024-01-06T03:32:07;7.70;99.90
23335;DHT22;11839;48.598;8.870;2024-01-06T03:34:34;7.60;99.90
23335;DHT22;11839;48.598;8.870;2024-01-06T03:37:01;7.60;99.90
23335;DHT22;11839;48.598;8.870;2024-01-06T03:39:28;7.60;99.90
23335;DHT22;11839;48.598;8.870;2024-01-06T03:41:54;7.30;99.90
23335;DHT22;11839;48.598;8.870;2024-01-06T03:44:21;7.30;99.90
23335;DHT22;11839;48.598;8.870;2024-01-06T03:46:48;7.50;99.90
23335;DHT22;11839;48.598;8.870;2024-01-06T03:49:17;7.40;99.90
23335;DHT22;11839;48.598;8.870;2024-01-06T03:51:46;7.40;99.90
23335;DHT22;11839;48.598;8.870;2024-01-06T03:54:13;7.30;99.90
23335;DHT22;11839;48.598;8.870;2024-01-06T03:56:39;7.30;99.90
23335;DHT22;11839;48.598;8.870;2024-01-06T03:59:06;7.20;99.90
23335;DHT22;11839;48.598;8.870;2024-01-06T04:01:33;6.90;99.90
23335;DHT22;11839;48.598;8.870;2024-01-06T04:04:02;7.10;99.90
23335;DHT22;11839;48.598;8.870;2024-01-06T04:06:31;7.40;99.90
23335;DHT22;11839;48.598;8.870;2024-01-06T04:08:58;7.50;99.90
23335;DHT22;11839;48.598;8.870;2024-01-06T04:11:25;7.50;99.90
23335;DHT22;11839;48.598;8.870;2024-01-06T04:13:52;7.30;99.90
23335;DHT22;11839;48.598;8.870;2024-01-06T04:16:19;7.20;99.90
23335;DHT22;11839;48.598;8.870;2024-01-06T04:18:46;7.30;99.90
23335;DHT22;11839;48.598;8.870;2024-01-06T04:21:13;7.30;99.90
23335;DHT22;11839;48.598;8.870;2024-01-06T04:23:41;7.60;99.90
23335;DHT22;11839;48.598;8.870;2024-01-06T04:26:08;7.50;99.90
23335;DHT22;11839;48.598;8.870;2024-01-06T04:28:35;7.70;99.90
23335;DHT22;11839;48.598;8.870;2024-01-06T04:31:02;7.70;99.90
23335;DHT22;11839;48.598;8.870;2024-01-06T04:33:28;8.00;99.90
23335;DHT22;11839;48.598;8.870;2024-01-06T04:35:56;7.90;99.90
23335;DHT22;11839;48.598;8.870;2024-01-06T04:38:24;7.90;99.90
23335;DHT22;11839;48.598;8.870;2024-01-06T04:40:52;7.90;99.90
23335;DHT22;11839;48.598;8.870;2024-01-06T04:43:19;7.60;99.90
23335;DHT22;11839;48.598;8.870;2024-01-06T04:45:46;7.60;99.90
23335;DHT22;11839;48.598;8.870;2024-01-06T04:48:13;7.60;99.90
23335;DHT22;11839;48.598;8.870;2024-01-06T04:50:39;7.60;99.90
23335;DHT22;11839;48.598;8.870;2024-01-06T04:53:06;7.70;99.90
23335;DHT22;11839;48.598;8.870;2024-01-06T04:55:33;7.80;99.90
23335;DHT22;11839;48.598;8.870;2024-01-06T04:58:01;7.70;99.90
23335;DHT22;11839;48.598;8.870;2024-01-06T05:00:28;7.60;99.90
23335;DHT22;11839;48.598;8.870;2024-01-06T05:02:54;7.80;99.90
23335;DHT22;11839;48.598;8.870;2024-01-06T05:05:21;7.60;99.90
23335;DHT22;11839;48.598;8.870;2024-01-06T05:07:48;7.40;99.90
23335;DHT22;11839;48.598;8.870;2024-01-06T05:10:15;7.70;99.90
23335;DHT22;11839;48.598;8.870;2024-01-06T05:12:42;7.90;99.90
23335;DHT22;11839;48.598;8.870;2024-01-06T05:15:10;7.90;99.90
23335;DHT22;11839;48.598;8.870;2024-01-06T05:17:37;7.80;99.90
23335;DHT22;11839;48.598;8.870;2024-01-06T05:20:05;7.80;99.90
23335;DHT22;11839;48.598;8.870;2024-01-06T05:22:32;7.90;99.90
23335;DHT22;11839;48.598;8.870;2024-01-06T05:24:58;7.90;99.90
23335;DHT22;11839;48.598;8.870;2024-01-06T05:27:25;7.90;99.90
23335;DHT22;11839;48.598;8.870;2024-01-06T05:29:52;7.90;99.90
23335;DHT22;11839;48.598;8.870;2024-01-06T05:32:20;8.10;99.90
23335;DHT22;11839;48.598;8.870;2024-01-06T05:34:48;8.10;99.90
23335;DHT22;11839;48.598;8.870;2024-01-06T05:37:14;8.20;99.90
23335;DHT22;11839;48.598;8.870;2024-01-06T05:39:41;7.90;99.90
23335;DHT22;11839;48.598;8.870;2024-01-06T05:42:09;8.10;99.90
23335;DHT22;11839;48.598;8.870;2024-01-06T05:44:36;8.10;99.90
23335;DHT22;11839;48.598;8.870;2024-01-06T05:47:04;8.10;99.90
23335;DHT22;11839;48.598;8.870;2024-01-06T05:49:32;8.00;99.90
23335;DHT22;11839;48.598;8.870;2024-01-06T05:51:59;8.00;99.90
23335;DHT22;11839;48.598;8.870;2024-01-06T05:54:26;8.10;99.90
23335;DHT22;11839;48.598;8.870;2024-01-06T05:56:52;8.00;99.90
23335;DHT22;11839;48.598;8.870;2024-01-06T05:59:19;7.90;99.90
23335;DHT22;11839;48.598;8.870;2024-01-06T06:01:46;7.90;99.90
23335;DHT22;11839;48.598;8.870;2024-01-06T06:04:12;7.80;99.90
23335;DHT22;11839;48.598;8.870;2024-01-06T06:06:41;8.10;99.90
23335;DHT22;11839;48.598;8.870;2024-01-06T06:09:07;8.00;99.90
23335;DHT22;11839;48.598;8.870;2024-01-06T06:11:35;7.90;99.90
23335;DHT22;11839;48.598;8.870;2024-01-06T06:14:02;8.10;99.90
23335;DHT22;11839;48.598;8.870;2024-01-06T06:16:30;8.10;99.90
23335;DHT22;11839;48.598;8.870;2024-01-06T06:18:57;8.10;99.90
23335;DHT22;11839;48.598;8.870;2024-01-06T06:21:23;8.10;99.90
23335;DHT22;11839;48.598;8.870;2024-01-06T06:23:51;8.10;99.90
23335;DHT22;11839;48.598;8.870;2024-01-06T06:26:18;8.10;99.90
23335;DHT22;11839;48.598;8.870;2024-01-06T06:28:45;8.20;99.90
23335;DHT22;11839;48.598;8.870;2024-01-06T06:31:12;8.20;99.90
23335;DHT22;11839;48.598;8.870;2024-01-06T06:33:38;8.00;99.90
23335;DHT22;11839;48.598;8.870;2024-01-06T06:36:06;8.00;99.90
23335;DHT22;11839;48.598;8.870;2024-01-06T06:38:33;8.00;99.90
23335;DHT22;11839;48.598;8.870;2024-01-06T06:41:01;8.00;99.90
23335;DHT22;11839;48.598;8.870;2024-01-06T06:43:27;8.10;99.90
23335;DHT22;11839;48.598;8.870;2024-01-06T06:45:54;8.20;99.90
23335;DHT22;11839;48.598;8.870;2024-01-06T06:48:22;8.10;99.90
23335;DHT22;11839;48.598;8.870;2024-01-06T06:50:48;8.30;99.90
23335;DHT22;11839;48.598;8.870;2024-01-06T06:53:15;8.30;99.90
23335;DHT22;11839;48.598;8.870;2024-01-06T06:55:42;8.10;99.90
23335;DHT22;11839;48.598;8.870;2024-01-06T06:58:10;8.10;99.90
23335;DHT22;11839;48.598;8.870;2024-01-06T07:00:37;8.30;99.90
23335;DHT22;11839;48.598;8.870;2024-01-06T07:03:05;8.40;99.90
23335;DHT22;11839;48.598;8.870;2024-01-06T07:05:31;8.20;99.90
23335;DHT22;11839;48.598;8.870;2024-01-06T07:08:00;8.00;99.90
23335;DHT22;11839;48.598;8.870;2024-01-06T07:10:27;8.00;99.90
23335;DHT22;11839;48.598;8.870;2024-01-06T07:12:54;8.10;99.90
23335;DHT22;11839;48.598;8.870;2024-01-06T07:15:22;8.30;99.90
23335;DHT22;11839;48.598;8.870;2024-01-06T07:17:48;8.40;99.90
23335;DHT22;11839;48.598;8.870;2024-01-06T07:20:15;8.20;99.90
23335;DHT22;11839;48.598;8.870;2024-01-06T07:22:42;8.10;99.90
23335;DHT22;11839;48.598;8.870;2024-01-06T07:25:09;8.00;99.90
23335;DHT22;11839;48.598;8.870;2024-01-06T07:27:36;8.20;99.90
23335;DHT22;11839;48.598;8.870;2024-01-06T07:30:03;8.40;99.90
23335;DHT22;11839;48.598;8.870;2024-01-06T07:32:32;8.30;99.90
23335;DHT22;11839;48.598;8.870;2024-01-06T07:34:59;8.50;99.90
23335;DHT22;11839;48.598;8.870;2024-01-06T07:37:26;8.40;99.90
23335;DHT22;11839;48.598;8.870;2024-01-06T07:39:52;8.30;99.90
23335;DHT22;11839;48.598;8.870;2024-01-06T07:42:19;8.30;99.90
23335;DHT22;11839;48.598;8.870;2024-01-06T07:44:46;8.10;99.90
23335;DHT22;11839;48.598;8.870;2024-01-06T07:47:13;8.30;99.90
23335;DHT22;11839;48.598;8.870;2024-01-06T07:49:41;8.30;99.90
23335;DHT22;11839;48.598;8.870;2024-01-06T07:52:08;8.50;99.90
23335;DHT22;11839;48.598;8.870;2024-01-06T07:54:34;8.60;99.90
23335;DHT22;11839;48.598;8.870;2024-01-06T07:57:01;8.50;99.90
23335;DHT22;11839;48.598;8.870;2024-01-06T07:59:28;8.50;99.90
23335;DHT22;11839;48.598;8.870;2024-01-06T08:01:55;8.60;99.90
23335;DHT22;11839;48.598;8.870;2024-01-06T08:04:22;8.60;99.90
23335;DHT22;11839;48.598;8.870;2024-01-06T08:06:50;8.70;99.90
23335;DHT22;11839;48.598;8.870;2024-01-06T08:09:17;8.70;99.90
23335;DHT22;11839;48.598;8.870;2024-01-06T08:11:43;8.60;99.90
23335;DHT22;11839;48.598;8.870;2024-01-06T08:14:13;8.70;99.90
23335;DHT22;11839;48.598;8.870;2024-01-06T08:16:42;8.90;99.90
23335;DHT22;11839;48.598;8.870;2024-01-06T08:19:09;8.80;99.90
23335;DHT22;11839;48.598;8.870;2024-01-06T08:21:35;8.70;99.90
23335;DHT22;11839;48.598;8.870;2024-01-06T08:24:04;8.90;99.90
23335;DHT22;11839;48.598;8.870;2024-01-06T08:26:31;8.50;99.90
23335;DHT22;11839;48.598;8.870;2024-01-06T08:28:58;8.70;99.90
23335;DHT22;11839;48.598;8.870;2024-01-06T08:31:25;8.90;99.90
23335;DHT22;11839;48.598;8.870;2024-01-06T08:33:52;9.10;99.90
23335;DHT22;11839;48.598;8.870;2024-01-06T08:36:19;9.30;99.90
23335;DHT22;11839;48.598;8.870;2024-01-06T08:38:46;9.40;99.90
23335;DHT22;11839;48.598;8.870;2024-01-06T08:41:14;9.20;99.90
23335;DHT22;11839;48.598;8.870;2024-01-06T08:43:41;9.00;99.90
23335;DHT22;11839;48.598;8.870;2024-01-06T08:46:07;9.00;99.90
23335;DHT22;11839;48.598;8.870;2024-01-06T08:48:34;9.30;99.90
23335;DHT22;11839;48.598;8.870;2024-01-06T08:51:01;8.90;99.90
23335;DHT22;11839;48.598;8.870;2024-01-06T08:53:28;8.80;99.90
23335;DHT22;11839;48.598;8.870;2024-01-06T08:55:54;9.10;99.90
23335;DHT22;11839;48.598;8.870;2024-01-06T08:58:22;9.00;99.90
23335;DHT22;11839;48.598;8.870;2024-01-06T09:00:49;8.90;99.90
23335;DHT22;11839;48.598;8.870;2024-01-06T09:03:18;9.10;99.90
23335;DHT22;11839;48.598;8.870;2024-01-06T09:05:50;9.20;99.90
23335;DHT22;11839;48.598;8.870;2024-01-06T09:08:17;9.10;99.90
23335;DHT22;11839;48.598;8.870;2024-01-06T09:10:44;9.10;99.90
23335;DHT22;11839;48.598;8.870;2024-01-06T09:13:11;9.10;99.90
23335;DHT22;11839;48.598;8.870;2024-01-06T09:15:39;8.70;99.90
23335;DHT22;11839;48.598;8.870;2024-01-06T09:18:06;8.80;99.90
23335;DHT22;11839;48.598;8.870;2024-01-06T09:20:32;9.20;99.90
23335;DHT22;11839;48.598;8.870;2024-01-06T09:22:59;8.90;99.90
23335;DHT22;11839;48.598;8.870;2024-01-06T09:25:26;8.90;99.90
23335;DHT22;11839;48.598;8.870;2024-01-06T09:27:53;9.40;99.90
23335;DHT22;11839;48.598;8.870;2024-01-06T09:30:19;9.00;99.90
23335;DHT22;11839;48.598;8.870;2024-01-06T09:32:49;9.30;99.90
23335;DHT22;11839;48.598;8.870;2024-01-06T09:35:15;9.30;99.90
23335;DHT22;11839;48.598;8.870;2024-01-06T09:37:42;9.40;99.90
23335;DHT22;11839;48.598;8.870;2024-01-06T09:40:12;9.40;99.90
23335;DHT22;11839;48.598;8.870;2024-01-06T09:42:39;9.60;99.90
23335;DHT22;11839;48.598;8.870;2024-01-06T09:45:07;9.90;99.90
23335;DHT22;11839;48.598;8.870;2024-01-06T09:47:35;9.60;99.90
23335;DHT22;11839;48.598;8.870;2024-01-06T09:50:06;9.80;99.90
23335;DHT22;11839;48.598;8.870;2024-01-06T09:52:40;9.50;99.90
23335;DHT22;11839;48.598;8.870;2024-01-06T09:55:11;9.80;99.90
23335;DHT22;11839;48.598;8.870;2024-01-06T09:57:38;10.00;99.90
23335;DHT22;11839;48.598;8.870;2024-01-06T10:00:06;10.00;99.90
23335;DHT22;11839;48.598;8.870;2024-01-06T10:02:33;9.90;99.90
23335;DHT22;11839;48.598;8.870;2024-01-06T10:05:00;9.60;99.90
23335;DHT22;11839;48.598;8.870;2024-01-06T10:07:28;9.50;99.90
23335;DHT22;11839;48.598;8.870;2024-01-06T10:09:55;9.30;99.90
23335;DHT22;11839;48.598;8.870;2024-01-06T10:12:23;9.30;99.90
23335;DHT22;11839;48.598;8.870;2024-01-06T10:14:50;9.30;99.90
23335;DHT22;11839;48.598;8.870;2024-01-06T10:17:17;9.10;99.90
23335;DHT22;11839;48.598;8.870;2024-01-06T10:19:45;9.30;99.90
23335;DHT22;11839;48.598;8.870;2024-01-06T10:22:13;9.10;99.90
23335;DHT22;11839;48.598;8.870;2024-01-06T10:24:41;9.40;99.90
23335;DHT22;11839;48.598;8.870;2024-01-06T10:27:08;9.20;99.90
23335;DHT22;11839;48.598;8.870;2024-01-06T10:29:35;8.80;99.90
23335;DHT22;11839;48.598;8.870;2024-01-06T10:32:03;9.10;99.90
23335;DHT22;11839;48.598;8.870;2024-01-06T10:34:31;9.40;99.90
23335;DHT22;11839;48.598;8.870;2024-01-06T10:36:58;9.40;99.90
23335;DHT22;11839;48.598;8.870;2024-01-06T10:39:25;9.30;99.90
23335;DHT22;11839;48.598;8.870;2024-01-06T10:41:55;9.40;99.90
23335;DHT22;11839;48.598;8.870;2024-01-06T10:44:24;9.50;99.90
23335;DHT22;11839;48.598;8.870;2024-01-06T10:46:51;9.80;99.90
23335;DHT22;11839;48.598;8.870;2024-01-06T10:49:20;9.80;99.90
23335;DHT22;11839;48.598;8.870;2024-01-06T10:51:48;9.60;99.90
23335;DHT22;11839;48.598;8.870;2024-01-06T10:54:15;9.30;99.90
23335;DHT22;11839;48.598;8.870;2024-01-06T10:56:45;9.40;99.90
23335;DHT22;11839;48.598;8.870;2024-01-06T10:59:14;9.20;99.90
23335;DHT22;11839;48.598;8.870;2024-01-06T11:01:41;9.40;99.90
23335;DHT22;11839;48.598;8.870;2024-01-06T11:04:09;9.40;99.90
23335;DHT22;11839;48.598;8.870;2024-01-06T11:06:36;9.20;99.90
23335;DHT22;11839;48.598;8.870;2024-01-06T11:09:09;9.30;99.90
23335;DHT22;11839;48.598;8.870;2024-01-06T11:11:38;9.40;99.90
23335;DHT22;11839;48.598;8.870;2024-01-06T11:14:20;9.70;99.90
23335;DHT22;11839;48.598;8.870;2024-01-06T11:16:47;9.50;99.90
23335;DHT22;11839;48.598;8.870;2024-01-06T11:19:42;9.70;99.90
23335;DHT22;11839;48.598;8.870;2024-01-06T11:22:26;9.90;99.90
23335;DHT22;11839;48.598;8.870;2024-01-06T11:24:56;10.10;99.90
23335;DHT22;11839;48.598;8.870;2024-01-06T11:27:24;9.80;99.90
23335;DHT22;11839;48.598;8.870;2024-01-06T11:29:55;9.90;99.90
23335;DHT22;11839;48.598;8.870;2024-01-06T11:32:28;9.60;99.90
23335;DHT22;11839;48.598;8.870;2024-01-06T11:34:56;9.50;99.90
23335;DHT22;11839;48.598;8.870;2024-01-06T11:37:35;9.70;99.90
23335;DHT22;11839;48.598;8.870;2024-01-06T11:40:03;9.80;99.90
23335;DHT22;11839;48.598;8.870;2024-01-06T11:42:34;9.90;99.90
23335;DHT22;11839;48.598;8.870;2024-01-06T11:45:06;9.40;99.90
23335;DHT22;11839;48.598;8.870;2024-01-06T11:47:34;8.80;99.90
23335;DHT22;11839;48.598;8.870;2024-01-06T11:50:02;8.80;99.90
23335;DHT22;11839;48.598;8.870;2024-01-06T11:52:30;9.00;99.90
23335;DHT22;11839;48.598;8.870;2024-01-06T11:54:58;9.50;99.90
23335;DHT22;11839;48.598;8.870;2024-01-06T11:57:27;9.40;99.90
23335;DHT22;11839;48.598;8.870;2024-01-06T11:59:54;9.70;99.90
23335;DHT22;11839;48.598;8.870;2024-01-06T12:02:22;9.70;99.90
23335;DHT22;11839;48.598;8.870;2024-01-06T12:04:49;9.50;99.90
23335;DHT22;11839;48.598;8.870;2024-01-06T12:07:17;9.40;99.90
23335;DHT22;11839;48.598;8.870;2024-01-06T12:09:45;9.00;99.90
23335;DHT22;11839;48.598;8.870;2024-01-06T12:12:15;9.20;99.90
23335;DHT22;11839;48.598;8.870;2024-01-06T12:14:42;9.40;99.90
23335;DHT22;11839;48.598;8.870;2024-01-06T12:17:09;9.40;99.90
23335;DHT22;11839;48.598;8.870;2024-01-06T12:19:37;9.60;99.90
23335;DHT22;11839;48.598;8.870;2024-01-06T12:22:05;9.80;99.90
23335;DHT22;11839;48.598;8.870;2024-01-06T12:24:32;10.10;99.90
23335;DHT22;11839;48.598;8.870;2024-01-06T12:26:59;10.50;99.90
23335;DHT22;11839;48.598;8.870;2024-01-06T12:29:26;10.60;99.90
23335;DHT22;11839;48.598;8.870;2024-01-06T12:31:55;9.50;99.90
23335;DHT22;11839;48.598;8.870;2024-01-06T12:34:22;9.50;99.90
23335;DHT22;11839;48.598;8.870;2024-01-06T12:36:53;9.60;99.90
23335;DHT22;11839;48.598;8.870;2024-01-06T12:39:20;9.50;99.90
23335;DHT22;11839;48.598;8.870;2024-01-06T12:41:51;9.90;99.90
23335;DHT22;11839;48.598;8.870;2024-01-06T12:44:18;10.20;99.90
23335;DHT22;11839;48.598;8.870;2024-01-06T12:46:45;10.20;99.90
23335;DHT22;11839;48.598;8.870;2024-01-06T12:49:12;9.90;99.90
23335;DHT22;11839;48.598;8.870;2024-01-06T12:51:38;10.40;99.90
23335;DHT22;11839;48.598;8.870;2024-01-06T12:54:07;10.60;99.90
23335;DHT22;11839;48.598;8.870;2024-01-06T12:56:34;10.10;99.90
23335;DHT22;11839;48.598;8.870;2024-01-06T12:59:00;9.20;99.90
23335;DHT22;11839;48.598;8.870;2024-01-06T13:01:27;9.30;99.90
23335;DHT22;11839;48.598;8.870;2024-01-06T13:03:54;9.50;99.90
23335;DHT22;11839;48.598;8.870;2024-01-06T13:06:21;9.40;99.90
23335;DHT22;11839;48.598;8.870;2024-01-06T13:08:48;9.30;99.90
23335;DHT22;11839;48.598;8.870;2024-01-06T13:11:16;9.10;99.90
23335;DHT22;11839;48.598;8.870;2024-01-06T13:13:43;9.20;99.90
23335;DHT22;11839;48.598;8.870;2024-01-06T13:16:10;9.00;99.90
23335;DHT22;11839;48.598;8.870;2024-01-06T13:18:37;9.10;99.90
23335;DHT22;11839;48.598;8.870;2024-01-06T13:21:04;9.20;99.90
23335;DHT22;11839;48.598;8.870;2024-01-06T13:23:31;9.00;99.90
23335;DHT22;11839;48.598;8.870;2024-01-06T13:25:58;8.60;99.90
23335;DHT22;11839;48.598;8.870;2024-01-06T13:28:26;9.00;99.90
23335;DHT22;11839;48.598;8.870;2024-01-06T13:30:53;9.10;99.90
23335;DHT22;11839;48.598;8.870;2024-01-06T13:33:20;8.90;99.90
23335;DHT22;11839;48.598;8.870;2024-01-06T13:35:46;8.70;99.90
23335;DHT22;11839;48.598;8.870;2024-01-06T13:38:13;8.90;99.90
23335;DHT22;11839;48.598;8.870;2024-01-06T13:40:41;9.30;99.90
23335;DHT22;11839;48.598;8.870;2024-01-06T13:43:08;9.30;99.90
23335;DHT22;11839;48.598;8.870;2024-01-06T13:45:42;9.30;99.90
23335;DHT22;11839;48.598;8.870;2024-01-06T13:48:10;8.90;99.90
23335;DHT22;11839;48.598;8.870;2024-01-06T13:50:36;9.00;99.90
23335;DHT22;11839;48.598;8.870;2024-01-06T13:53:04;8.80;99.90
23335;DHT22;11839;48.598;8.870;2024-01-06T13:55:31;8.60;99.90
23335;DHT22;11839;48.598;8.870;2024-01-06T13:57:58;8.50;99.90
23335;DHT22;11839;48.598;8.870;2024-01-06T14:00:25;8.90;99.90
23335;DHT22;11839;48.598;8.870;2024-01-06T14:02:54;8.90;99.90
23335;DHT22;11839;48.598;8.870;2024-01-06T14:05:21;8.60;99.90
23335;DHT22;11839;48.598;8.870;2024-01-06T14:07:48;8.60;99.90
23335;DHT22;11839;48.598;8.870;2024-01-06T14:10:16;8.70;99.90
23335;DHT22;11839;48.598;8.870;2024-01-06T14:12:43;8.60;99.90
23335;DHT22;11839;48.598;8.870;2024-01-06T14:15:09;8.20;99.90
23335;DHT22;11839;48.598;8.870;2024-01-06T14:17:37;8.20;99.90
23335;DHT22;11839;48.598;8.870;2024-01-06T14:20:07;8.50;99.90
23335;DHT22;11839;48.598;8.870;2024-01-06T14:22:34;8.50;99.90
23335;DHT22;11839;48.598;8.870;2024-01-06T14:25:01;8.50;99.90
23335;DHT22;11839;48.598;8.870;2024-01-06T14:27:28;8.40;99.90
23335;DHT22;11839;48.598;8.870;2024-01-06T14:29:55;8.50;99.90
23335;DHT22;11839;48.598;8.870;2024-01-06T14:32:23;8.40;99.90
23335;DHT22;11839;48.598;8.870;2024-01-06T14:34:49;8.20;99.90
23335;DHT22;11839;48.598;8.870;2024-01-06T14:37:18;8.30;99.90
23335;DHT22;11839;48.598;8.870;2024-01-06T14:39:45;8.50;99.90
23335;DHT22;11839;48.598;8.870;2024-01-06T14:42:12;8.20;99.90
23335;DHT22;11839;48.598;8.870;2024-01-06T14:44:39;8.30;99.90
23335;DHT22;11839;48.598;8.870;2024-01-06T14:47:06;8.30;99.90
23335;DHT22;11839;48.598;8.870;2024-01-06T14:49:33;8.20;99.90
23335;DHT22;11839;48.598;8.870;2024-01-06T14:52:00;8.30;99.90
23335;DHT22;11839;48.598;8.870;2024-01-06T14:54:29;8.10;99.90
23335;DHT22;11839;48.598;8.870;2024-01-06T14:56:58;8.20;99.90
23335;DHT22;11839;48.598;8.870;2024-01-06T14:59:25;8.20;99.90
23335;DHT22;11839;48.598;8.870;2024-01-06T15:01:52;8.00;99.90
23335;DHT22;11839;48.598;8.870;2024-01-06T15:04:19;8.20;99.90
23335;DHT22;11839;48.598;8.870;2024-01-06T15:06:46;8.20;99.90
23335;DHT22;11839;48.598;8.870;2024-01-06T15:09:13;8.10;99.90
23335;DHT22;11839;48.598;8.870;2024-01-06T15:11:42;8.00;99.90
23335;DHT22;11839;48.598;8.870;2024-01-06T15:14:08;7.90;99.90
23335;DHT22;11839;48.598;8.870;2024-01-06T15:16:35;7.90;99.90
23335;DHT22;11839;48.598;8.870;2024-01-06T15:19:03;7.90;99.90
23335;DHT22;11839;48.598;8.870;2024-01-06T15:21:29;8.00;99.90
23335;DHT22;11839;48.598;8.870;2024-01-06T15:23:59;7.90;99.90
23335;DHT22;11839;48.598;8.870;2024-01-06T15:26:26;7.90;99.90
23335;DHT22;11839;48.598;8.870;2024-01-06T15:28:55;7.90;99.90
23335;DHT22;11839;48.598;8.870;2024-01-06T15:31:26;7.70;99.90
23335;DHT22;11839;48.598;8.870;2024-01-06T15:33:53;7.60;99.90
23335;DHT22;11839;48.598;8.870;2024-01-06T15:36:19;7.40;99.90
23335;DHT22;11839;48.598;8.870;2024-01-06T15:38:46;7.30;99.90
23335;DHT22;11839;48.598;8.870;2024-01-06T15:41:13;7.10;99.90
23335;DHT22;11839;48.598;8.870;2024-01-06T15:43:40;7.30;99.90
23335;DHT22;11839;48.598;8.870;2024-01-06T15:46:08;7.20;99.90